Camp Pendleton, California
Current Conditions -  °F | °C
As of 12:54 AM on Friday 24 Oct 2014 (Local Time) from KNFG Reporting Station
Haze Haze  
Wind Chill: 55°   Ceiling: Unl
Heat Index: 55°   Visibility: 6mi
Dew Point: 48°   Wind: 0mph
Humidity: 77%   Direction: NA
Pressure: 29.96"   Gusts: NA
Location:  33.3°N, 117.36°W
Report Text: KNFG 240754Z AUTO 00000KT 6SM HZ CLR 13/09 A2996 RMK AO2 SLP145 T01280089 402890089 $
Loading
Personal Weather Stations






























Interactive Weather Map
Tropical Storm Tracking
New forecast layout! Learn more

10-Day Weather Forecast

Advertisements
Track Severe Weather on mobile